Time;durP1;ratioP1;P1;durP2;ratioP2;P2;SDS_P1;SDS_P2;PMS_P1;PMS_P2;Temp;Humidity;BMP_temperature;BMP_pressure;BME280_temperature;BME280_humidity;BME280_pressure;Samples;Min_cycle;Max_cycle;Signal;HPM_P1;HPM_P2
2022/06/02 06:41:18;;;;;;;;;8.00;8.00;;;;;19.83;47.55;101531.84;4991608;27;55306;-78
2022/06/02 06:44:24;;;;;;;;;8.00;8.00;;;;;19.98;46.77;101529.75;4983284;28;45588;-77
2022/06/02 06:47:03;;;;;;;;;7.25;7.25;;;;;20.23;46.01;101531.28;4970360;27;45515;-75
2022/06/02 06:50:03;;;;;;;;;7.00;7.00;;;;;20.53;45.86;101529.69;4982699;27;46113;-74
2022/06/02 06:52:53;;;;;;;;;7.25;5.00;;;;;20.87;45.34;101531.41;4980408;28;47279;-75
2022/06/02 06:55:24;;;;;;;;;6.00;6.00;;;;;21.17;44.47;101526.22;4981652;28;46412;-75
2022/06/02 06:57:56;;;;;;;;;6.00;6.00;;;;;21.46;43.76;101526.34;4978835;28;45686;-74
2022/06/02 07:00:28;;;;;;;;;6.67;6.67;;;;;21.74;43.02;101525.75;4996037;27;45529;-74
2022/06/02 07:03:18;;;;;;;;;6.00;6.00;;;;;22.00;42.98;101527.09;4989404;27;45680;-76
2022/06/02 07:06:17;;;;;;;;;7.25;6.25;;;;;22.32;42.34;101529.56;4990911;27;45618;-75
2022/06/02 07:09:01;;;;;;;;;7.00;6.00;;;;;22.57;41.58;101521.06;4981501;28;45603;-76
2022/06/02 07:14:44;;;;;;;;;7.67;6.00;;;;;23.01;40.94;101529.53;4989232;27;45852;-77
2022/06/02 07:17:20;;;;;;;;;5.67;5.67;;;;;23.16;40.32;101531.78;4979177;28;45465;-76
2022/06/02 07:20:18;;;;;;;;;5.67;5.67;;;;;23.29;40.34;101529.59;4995888;27;45430;-76
2022/06/02 07:22:54;;;;;;;;;4.67;4.67;;;;;23.41;40.07;101533.00;4981844;28;45512;-76
2022/06/02 07:25:29;;;;;;;;;4.67;4.67;;;;;23.50;40.23;101536.66;4977169;27;45540;-77
2022/06/02 07:28:22;;;;;;;;;6.33;6.33;;;;;23.63;40.35;101533.59;4975908;27;45994;-78
2022/06/02 07:31:06;;;;;;;;;7.67;7.67;;;;;23.77;39.63;101528.69;4990850;27;45537;-86
2022/06/02 07:33:52;;;;;;;;;7.67;5.00;;;;;23.92;39.32;101526.34;4969077;28;45415;-80
2022/06/02 07:36:47;;;;;;;;;7.33;6.33;;;;;24.05;39.20;101539.53;4982739;27;47984;-78
2022/06/02 07:39:15;;;;;;;;;6.00;6.00;;;;;24.15;38.98;101534.09;4972121;28;45842;-82
2022/06/02 07:42:04;;;;;;;;;6.00;6.00;;;;;24.23;38.82;101536.84;5025276;27;45567;-88
2022/06/02 07:44:35;;;;;;;;;5.67;5.67;;;;;24.30;38.66;101537.09;4980507;27;45553;-80
2022/06/02 07:47:44;;;;;;;;;6.00;6.00;;;;;24.33;38.39;101534.91;4979805;27;46481;-82
2022/06/02 07:50:24;;;;;;;;;6.00;6.00;;;;;24.36;37.98;101543.78;4976268;27;45416;-77
2022/06/02 07:53:15;;;;;;;;;6.67;6.67;;;;;24.38;38.52;101539.88;4963510;28;45469;-76
2022/06/02 07:55:52;;;;;;;;;4.00;4.00;;;;;24.41;39.30;101534.16;4968038;28;45667;-75
2022/06/02 07:58:41;;;;;;;;;5.67;5.67;;;;;24.48;39.05;101539.78;4961901;28;46230;-75
2022/06/02 08:01:49;;;;;;;;;6.00;6.00;;;;;24.56;38.86;101534.44;4980378;28;45484;-74
2022/06/02 08:04:20;;;;;;;;;5.67;5.33;;;;;24.65;38.65;101537.25;4960016;28;45397;-77
2022/06/02 08:07:06;;;;;;;;;7.00;5.00;;;;;24.71;38.82;101533.88;4975041;28;45731;-75
2022/06/02 08:09:35;;;;;;;;;4.67;4.67;;;;;24.74;38.93;101523.56;4956258;28;45951;-77
2022/06/02 08:12:13;;;;;;;;;5.00;5.00;;;;;24.81;38.88;101523.78;4965375;28;45610;-74
2022/06/02 08:15:17;;;;;;;;;6.33;4.67;;;;;24.86;39.29;101507.06;4964869;28;45481;-75
2022/06/02 08:17:58;;;;;;;;;6.00;6.00;;;;;24.92;39.11;101497.41;4976540;27;45631;-75
2022/06/02 08:20:53;;;;;;;;;6.00;5.33;;;;;24.96;39.20;101501.50;4964457;28;46155;-75
2022/06/02 08:23:24;;;;;;;;;5.67;5.67;;;;;25.02;39.02;101494.59;4907718;28;45438;-76
2022/06/02 08:26:19;;;;;;;;;6.00;6.00;;;;;25.06;38.81;101496.81;4908692;28;45538;-75
2022/06/02 08:29:02;;;;;;;;;7.00;7.00;;;;;25.10;39.08;101490.06;4904927;28;45637;-79
2022/06/02 08:31:48;;;;;;;;;4.33;4.33;;;;;25.12;39.50;101485.34;4918930;28;45697;-80
2022/06/02 08:34:36;;;;;;;;;6.00;6.00;;;;;25.17;39.38;101494.88;4909279;28;45894;-77
2022/06/02 08:37:14;;;;;;;;;7.00;6.33;;;;;25.20;38.00;101489.09;4907138;28;45627;-76
2022/06/02 08:40:24;;;;;;;;;5.67;5.67;;;;;25.23;37.88;101478.78;4920023;28;45712;-78
2022/06/02 08:43:06;;;;;;;;;5.67;5.67;;;;;25.34;37.33;101469.47;4987488;28;46863;-78
2022/06/02 08:46:06;;;;;;;;;6.67;6.67;;;;;25.43;37.12;101472.22;4979248;28;45696;-78
2022/06/02 08:49:09;;;;;;;;;4.33;4.33;;;;;25.49;36.70;101466.97;4972763;28;45509;-77
2022/06/02 08:52:03;;;;;;;;;6.33;6.33;;;;;25.51;37.08;101472.25;4988377;28;45515;-76
2022/06/02 08:55:02;;;;;;;;;7.33;6.00;;;;;25.52;36.70;101466.66;4986452;28;45884;-78
2022/06/02 08:58:01;;;;;;;;;6.67;6.33;;;;;25.52;36.72;101472.09;4989650;28;45513;-76
2022/06/02 09:00:36;;;;;;;;;4.67;4.67;;;;;25.51;36.25;101475.81;5003709;28;45461;-76
2022/06/02 09:03:28;;;;;;;;;6.00;5.00;;;;;25.52;36.37;101474.81;4963664;28;45990;-78
2022/06/02 09:06:23;;;;;;;;;6.67;5.00;;;;;25.57;35.86;101478.91;4974219;28;46482;-78
2022/06/02 09:08:51;;;;;;;;;6.00;6.00;;;;;25.58;35.97;101478.75;4968641;28;45688;-76
2022/06/02 09:11:34;;;;;;;;;3.33;3.33;;;;;25.60;36.20;101484.03;4961743;28;45514;-77
2022/06/02 09:14:28;;;;;;;;;4.33;4.33;;;;;25.61;35.91;101477.56;4964775;28;45542;-77
2022/06/02 09:17:07;;;;;;;;;6.67;6.67;;;;;25.62;35.87;101479.25;4965190;28;46629;-76
2022/06/02 09:19:48;;;;;;;;;5.00;4.67;;;;;25.63;35.79;101487.25;4965485;28;46360;-79
2022/06/02 09:22:28;;;;;;;;;7.00;4.00;;;;;25.65;36.03;101489.81;4960444;28;45486;-80
2022/06/02 09:25:13;;;;;;;;;4.33;4.00;;;;;25.62;35.47;101487.41;4968304;28;45686;-80
2022/06/02 09:27:42;;;;;;;;;6.67;5.67;;;;;25.65;35.42;101489.81;4964872;28;47145;-81
2022/06/02 09:30:34;;;;;;;;;3.67;3.67;;;;;25.68;35.81;101492.22;4967810;28;45643;-81
2022/06/02 09:36:23;;;;;;;;;4.67;4.00;;;;;25.72;35.54;101492.72;4972180;28;45609;-80
2022/06/02 09:39:06;;;;;;;;;8.33;4.67;;;;;25.73;35.58;101495.28;4976906;27;75371;-80
2022/06/02 09:41:53;;;;;;;;;6.33;6.00;;;;;25.74;35.58;101502.44;4960425;28;45471;-80
2022/06/02 09:44:29;;;;;;;;;5.00;5.00;;;;;25.72;35.33;101496.31;4967947;28;45808;-85
2022/06/02 09:47:14;;;;;;;;;6.67;3.33;;;;;25.64;35.55;101496.28;4962904;28;45479;-87
2022/06/02 09:50:05;;;;;;;;;4.33;3.67;;;;;25.60;35.77;101498.47;4968499;28;45463;-86
2022/06/02 09:52:40;;;;;;;;;5.00;5.00;;;;;25.63;35.33;101492.69;4969429;28;46445;-84
2022/06/02 09:55:28;;;;;;;;;6.67;4.00;;;;;25.67;35.31;101482.38;4965762;28;45347;-84
2022/06/02 09:58:02;;;;;;;;;6.00;4.67;;;;;25.68;35.67;101475.03;4968536;28;45535;-83
2022/06/02 10:00:39;;;;;;;;;6.67;6.00;;;;;25.67;35.40;101474.22;4968595;28;46624;-83
2022/06/02 10:03:22;;;;;;;;;4.67;4.67;;;;;25.62;35.50;101466.53;4967970;28;45466;-83
2022/06/02 10:05:56;;;;;;;;;7.00;5.00;;;;;25.57;35.43;101463.47;4967158;28;45458;-88
2022/06/02 10:08:40;;;;;;;;;6.67;6.00;;;;;25.52;35.61;101474.81;4958059;28;45687;-88
2022/06/02 10:11:44;;;;;;;;;9.00;7.00;;;;;25.52;36.11;101458.50;4978719;27;46617;-88
2022/06/02 10:14:31;;;;;;;;;6.00;6.00;;;;;25.50;35.90;101455.09;4964928;28;45445;-88
2022/06/02 10:17:04;;;;;;;;;6.67;5.00;;;;;25.46;35.91;101456.44;4963142;28;45344;-86
2022/06/02 10:20:14;;;;;;;;;6.00;6.00;;;;;25.44;36.09;101463.91;4962005;28;45705;-86
2022/06/02 10:23:03;;;;;;;;;4.67;4.67;;;;;25.45;35.87;101452.00;4955237;28;46229;-86
2022/06/02 10:25:38;;;;;;;;;6.00;5.00;;;;;25.43;35.93;101456.78;4957352;28;45385;-86
2022/06/02 10:28:23;;;;;;;;;4.67;4.00;;;;;25.46;36.32;101458.31;4962665;28;45364;-82
2022/06/02 10:31:11;;;;;;;;;4.67;4.67;;;;;25.49;35.79;101458.81;4959901;28;45490;-86
2022/06/02 10:33:50;;;;;;;;;6.67;6.00;;;;;25.48;35.90;101454.41;4961965;28;46401;-80
2022/06/02 10:36:54;;;;;;;;;6.33;6.33;;;;;25.51;36.02;101445.91;4971503;28;45513;-78
2022/06/02 10:39:21;;;;;;;;;6.00;5.67;;;;;25.58;35.88;101450.75;4963982;28;45417;-78
2022/06/02 10:42:02;;;;;;;;;6.67;6.00;;;;;25.62;36.05;101454.81;4960151;28;45513;-80
2022/06/02 10:44:58;;;;;;;;;4.00;4.00;;;;;25.65;35.78;101452.63;4966661;28;45711;-79
2022/06/02 10:47:41;;;;;;;;;5.67;4.67;;;;;25.71;35.79;101451.09;4955178;28;45377;-80
2022/06/02 10:50:24;;;;;;;;;5.33;4.00;;;;;25.75;35.69;101448.91;4968746;28;45525;-80
2022/06/02 10:53:04;;;;;;;;;4.33;4.33;;;;;25.77;35.93;101449.59;4962991;28;48250;-82
2022/06/02 10:56:08;;;;;;;;;5.67;5.67;;;;;25.81;35.68;101453.66;4967754;28;46074;-80
2022/06/02 10:58:53;;;;;;;;;4.00;3.33;;;;;25.84;35.37;101455.22;4967216;28;45439;-80
2022/06/02 11:01:57;;;;;;;;;6.00;6.00;;;;;25.86;35.50;101447.72;4962116;28;45470;-78
2022/06/02 11:04:54;;;;;;;;;5.00;5.00;;;;;25.85;35.64;101435.16;4961906;28;45554;-79
2022/06/02 11:07:51;;;;;;;;;7.67;6.00;;;;;25.89;35.60;101423.78;4969026;28;46224;-79
2022/06/02 11:10:28;;;;;;;;;8.00;6.00;;;;;25.92;35.82;101426.16;4965155;28;45843;-79
2022/06/02 11:13:03;;;;;;;;;5.00;5.00;;;;;25.95;35.36;101429.56;4960243;28;45442;-79
2022/06/02 11:15:54;;;;;;;;;5.33;5.33;;;;;25.98;35.58;101426.50;4964934;28;45709;-78
2022/06/02 11:18:38;;;;;;;;;6.00;6.00;;;;;25.98;35.47;101421.06;4959675;28;45933;-79
2022/06/02 11:21:09;;;;;;;;;7.00;5.33;;;;;25.95;35.67;101422.25;4955434;28;45327;-80
2022/06/02 11:23:56;;;;;;;;;6.00;5.00;;;;;25.98;35.34;101418.34;4970788;28;45344;-79
2022/06/02 11:27:08;;;;;;;;;6.00;5.00;;;;;26.01;35.21;101418.88;4969253;28;45574;-81
2022/06/02 11:29:51;;;;;;;;;4.00;4.00;;;;;26.03;35.41;101422.25;4925458;28;46185;-80
2022/06/02 11:32:38;;;;;;;;;6.00;6.00;;;;;26.03;35.17;101413.22;4926220;28;45405;-81
2022/06/02 11:35:35;;;;;;;;;5.67;5.67;;;;;25.99;35.74;101406.47;4931394;28;45667;-79
2022/06/02 11:38:28;;;;;;;;;4.00;4.00;;;;;25.95;35.45;101415.97;4928631;28;45485;-79
2022/06/02 11:41:11;;;;;;;;;4.00;4.00;;;;;25.91;35.97;101413.56;4924415;28;46407;-79
2022/06/02 11:43:59;;;;;;;;;5.00;5.00;;;;;25.87;35.92;101414.09;4961989;28;45852;-79
2022/06/02 11:46:52;;;;;;;;;3.33;3.33;;;;;25.84;36.29;101407.13;4927512;28;45434;-77
2022/06/02 11:50:00;;;;;;;;;5.00;5.00;;;;;25.82;36.12;101405.59;4919560;28;45519;-78
2022/06/02 11:52:44;;;;;;;;;4.67;4.67;;;;;25.81;36.43;101403.88;4930249;28;46172;-78
2022/06/02 11:55:24;;;;;;;;;3.33;3.33;;;;;25.76;36.48;101390.78;4922052;28;45576;-77
2022/06/02 11:58:45;;;;;;;;;5.33;4.00;;;;;25.72;36.63;101398.44;4929501;28;46049;-77
2022/06/02 12:01:23;;;;;;;;;5.33;5.00;;;;;25.70;36.67;101403.19;4972102;28;45612;-77
2022/06/02 12:04:00;;;;;;;;;3.33;3.33;;;;;25.70;36.74;101397.75;4969129;28;46428;-77
2022/06/02 12:06:57;;;;;;;;;6.67;5.00;;;;;25.74;36.79;101387.38;4920277;28;45426;-77
2022/06/02 12:09:26;;;;;;;;;3.33;3.33;;;;;25.75;36.67;101376.34;4927585;28;45627;-78
2022/06/02 12:12:00;;;;;;;;;5.00;5.00;;;;;25.75;37.04;101381.78;4930194;28;45421;-77
2022/06/02 12:15:05;;;;;;;;;5.00;5.00;;;;;25.78;36.96;101375.16;4918910;28;47378;-77
2022/06/02 12:17:48;;;;;;;;;3.00;3.00;;;;;25.77;36.92;101362.59;4927422;28;45467;-77
2022/06/02 12:20:38;;;;;;;;;5.33;4.00;;;;;25.78;37.21;101359.69;4923745;28;45643;-77
2022/06/02 12:23:28;;;;;;;;;5.33;3.00;;;;;25.80;36.76;101354.09;4927565;28;58420;-76
2022/06/02 12:25:53;;;;;;;;;4.00;4.00;;;;;25.83;36.65;101347.47;4924657;28;46476;-77
2022/06/02 12:28:41;;;;;;;;;3.67;3.67;;;;;25.87;36.76;101337.97;4928102;28;45564;-77
2022/06/02 12:31:12;;;;;;;;;4.00;4.00;;;;;25.91;36.94;101333.84;4926844;28;45450;-77
2022/06/02 12:33:56;;;;;;;;;3.00;3.00;;;;;25.95;37.08;101334.38;4921822;28;45930;-76
2022/06/02 12:36:47;;;;;;;;;5.00;5.00;;;;;25.97;36.94;101333.19;4927055;28;46716;-78
2022/06/02 12:39:40;;;;;;;;;3.00;3.00;;;;;26.03;36.77;101327.06;4958814;28;45423;-76
2022/06/02 12:42:48;;;;;;;;;4.00;4.00;;;;;26.04;37.06;101323.31;4962582;28;45650;-80
2022/06/02 12:45:46;;;;;;;;;4.00;3.67;;;;;26.04;36.43;101330.63;5014405;28;45411;-79
2022/06/02 12:49:06;;;;;;;;;5.00;5.00;;;;;26.06;37.15;101325.88;4964954;28;46088;-80
2022/06/02 12:51:38;;;;;;;;;4.00;4.00;;;;;26.07;36.77;101324.84;4904123;28;45529;-77
2022/06/02 12:54:18;;;;;;;;;4.33;4.33;;;;;26.12;36.73;101332.50;4909740;28;45610;-80
2022/06/02 12:57:23;;;;;;;;;3.00;3.00;;;;;26.13;36.37;101329.59;4905186;28;45934;-78
2022/06/02 13:00:09;;;;;;;;;2.67;2.67;;;;;26.18;36.74;101335.38;4906082;28;45859;-80
2022/06/02 13:02:40;;;;;;;;;3.00;3.00;;;;;26.21;36.74;101331.47;4905657;28;45642;-81
2022/06/02 13:05:39;;;;;;;;;3.00;3.00;;;;;26.26;36.47;101317.34;4904894;28;45520;-81
2022/06/02 13:08:26;;;;;;;;;4.00;4.00;;;;;26.24;36.38;101322.94;4910630;28;45663;-81
2022/06/02 13:11:29;;;;;;;;;1.67;1.67;;;;;26.24;36.74;101328.38;4913060;28;48609;-78
2022/06/02 13:14:31;;;;;;;;;4.67;4.00;;;;;26.27;36.87;101322.63;4907710;28;45670;-78
2022/06/02 13:17:18;;;;;;;;;4.67;3.33;;;;;26.29;37.05;101322.47;4903673;28;46882;-81
2022/06/02 13:20:00;;;;;;;;;3.00;3.00;;;;;26.28;36.79;101318.88;4904570;28;45830;-78
2022/06/02 13:22:59;;;;;;;;;3.00;3.00;;;;;26.30;36.52;101318.72;4910947;28;46232;-80
2022/06/02 13:25:36;;;;;;;;;2.67;2.67;;;;;26.30;36.72;101314.13;4903457;28;45706;-80
2022/06/02 13:28:25;;;;;;;;;4.67;3.67;;;;;26.30;36.96;101313.28;4931793;28;45542;-79
2022/06/02 13:31:12;;;;;;;;;3.00;3.00;;;;;26.27;36.59;101311.75;4970767;28;45441;-80
2022/06/02 13:33:57;;;;;;;;;3.00;3.00;;;;;26.24;37.07;101317.50;4965763;28;47413;-81
2022/06/02 13:36:45;;;;;;;;;4.33;3.00;;;;;26.22;36.54;101321.41;4984157;28;45848;-87
2022/06/02 13:39:48;;;;;;;;;3.00;3.00;;;;;26.25;36.87;101329.28;4963736;28;45605;-79
2022/06/02 13:42:25;;;;;;;;;2.33;2.33;;;;;26.29;36.52;101326.03;4964987;28;45437;-77
2022/06/02 13:45:14;;;;;;;;;4.00;3.00;;;;;26.29;36.99;101331.47;4972037;28;46251;-77
2022/06/02 13:48:17;;;;;;;;;4.33;4.33;;;;;26.30;36.98;101325.03;4963875;28;45440;-77
2022/06/02 13:51:02;;;;;;;;;3.67;3.67;;;;;26.30;36.52;101325.03;4966403;28;45814;-75
2022/06/02 13:57:30;;;;;;;;;4.00;3.00;;;;;26.28;36.33;101327.03;4958267;28;45482;-76
2022/06/02 14:00:01;;;;;;;;;3.00;3.00;;;;;26.28;36.55;101310.72;4966822;28;45448;-77
2022/06/02 14:02:32;;;;;;;;;4.33;4.00;;;;;26.27;36.84;101309.03;4925123;28;45314;-77
2022/06/02 14:05:21;;;;;;;;;3.00;3.00;;;;;26.29;36.63;101309.69;4927618;28;45534;-77
2022/06/02 14:08:01;;;;;;;;;3.00;3.00;;;;;26.30;36.75;101297.81;4923516;28;45461;-79
2022/06/02 14:11:02;;;;;;;;;2.67;2.67;;;;;26.33;36.73;101304.78;4929059;28;45613;-76
2022/06/02 14:13:45;;;;;;;;;4.33;4.33;;;;;26.34;36.95;101300.16;4925378;28;46203;-78
2022/06/02 14:16:31;;;;;;;;;3.00;3.00;;;;;26.35;36.96;101297.28;4927366;28;45606;-76
2022/06/02 14:19:18;;;;;;;;;3.00;3.00;;;;;26.35;37.03;101291.81;4918627;28;48132;-77
2022/06/02 14:22:26;;;;;;;;;2.33;2.33;;;;;26.35;37.09;101285.56;4923588;28;45582;-77
2022/06/02 14:25:07;;;;;;;;;3.00;3.00;;;;;26.37;36.95;101286.22;4925990;28;45626;-78
2022/06/02 14:28:10;;;;;;;;;2.00;2.00;;;;;26.38;36.72;101274.31;4922478;28;45931;-76
2022/06/02 14:30:47;;;;;;;;;2.00;2.00;;;;;26.39;37.06;101279.56;4956778;28;46315;-77
2022/06/02 14:33:25;;;;;;;;;3.00;2.00;;;;;26.41;36.72;101277.50;4961883;28;45486;-76
2022/06/02 14:35:59;;;;;;;;;3.00;3.00;;;;;26.43;37.00;101270.03;4966768;28;45583;-77
2022/06/02 14:38:48;;;;;;;;;2.67;2.67;;;;;26.43;37.10;101267.31;4972224;28;45483;-77
2022/06/02 14:41:29;;;;;;;;;1.67;1.67;;;;;26.43;37.14;101271.91;5023317;28;45593;-76
2022/06/02 14:44:29;;;;;;;;;3.00;3.00;;;;;26.44;36.38;101279.03;5027474;28;45444;-75
2022/06/02 14:47:33;;;;;;;;;2.00;2.00;;;;;26.47;36.79;101266.94;5028935;28;45441;-75
2022/06/02 14:50:12;;;;;;;;;3.00;3.00;;;;;26.46;37.31;101259.81;5006515;28;45656;-75
2022/06/02 14:52:56;;;;;;;;;2.00;2.00;;;;;26.44;36.91;101258.13;5024899;28;45419;-76
2022/06/02 14:56:07;;;;;;;;;2.33;2.33;;;;;26.46;37.02;101259.81;5028461;28;45420;-76
2022/06/02 14:58:39;;;;;;;;;2.00;2.00;;;;;26.45;37.06;101250.81;5019182;28;45495;-76
2022/06/02 15:01:34;;;;;;;;;4.00;4.00;;;;;26.47;36.84;101253.34;5027602;28;46250;-77
2022/06/02 15:04:35;;;;;;;;;2.67;2.67;;;;;26.49;36.79;101246.72;5032071;28;45492;-79
2022/06/02 15:07:13;;;;;;;;;3.00;3.00;;;;;26.52;36.80;101250.97;5007602;28;46931;-81
2022/06/02 15:10:02;;;;;;;;;5.00;3.33;;;;;26.51;36.48;101246.53;5012037;28;45383;-85
2022/06/02 15:12:54;;;;;;;;;2.33;2.33;;;;;26.48;37.13;101244.19;4966231;28;45572;-84
2022/06/02 15:15:42;;;;;;;;;4.33;4.00;;;;;26.48;36.79;101253.16;4973884;28;45540;-80
2022/06/02 15:18:37;;;;;;;;;2.67;2.67;;;;;26.47;36.89;101253.34;4968111;28;45824;-89
2022/06/02 15:21:50;;;;;;;;;3.67;3.67;;;;;26.43;36.58;101255.56;4966037;28;45511;-85
2022/06/02 15:24:33;;;;;;;;;2.33;2.33;;;;;26.41;37.15;101255.75;4997941;28;45433;-87
2022/06/02 15:27:23;;;;;;;;;3.00;3.00;;;;;26.41;37.01;101253.03;4995288;28;45544;-78
2022/06/02 15:30:04;;;;;;;;;3.00;2.00;;;;;26.42;36.94;101252.03;4988469;28;45872;-77
2022/06/02 15:32:58;;;;;;;;;3.00;3.00;;;;;26.43;36.91;101256.44;4988780;28;45444;-79
2022/06/02 15:35:37;;;;;;;;;2.67;2.67;;;;;26.43;36.77;101256.44;4915793;28;45790;-77
2022/06/02 15:38:31;;;;;;;;;3.67;3.00;;;;;26.48;37.17;101255.88;4929332;28;47045;-77
2022/06/02 15:41:34;;;;;;;;;3.67;3.67;;;;;26.51;36.87;101257.41;4936501;28;45673;-77
2022/06/02 15:44:18;;;;;;;;;4.00;2.67;;;;;26.51;36.67;101252.81;4935558;28;60184;-78
2022/06/02 15:47:02;;;;;;;;;2.00;2.00;;;;;26.54;36.95;101246.19;4937720;28;45541;-78
2022/06/02 15:49:54;;;;;;;;;2.00;2.00;;;;;26.54;36.61;101249.75;4933874;28;45488;-77
2022/06/02 15:52:37;;;;;;;;;5.33;4.33;;;;;26.53;36.70;101244.50;4937181;28;45444;-81
2022/06/02 15:55:13;;;;;;;;;2.00;2.00;;;;;26.51;36.60;101254.69;4898403;28;45640;-84
2022/06/02 15:58:19;;;;;;;;;3.00;2.00;;;;;26.44;36.77;101255.41;4870736;28;45370;-84
2022/06/02 16:01:14;;;;;;;;;2.00;2.00;;;;;26.42;36.60;101249.31;4876450;28;46325;-84
2022/06/02 16:03:39;;;;;;;;;2.00;2.00;;;;;26.38;37.24;101250.66;4879561;28;45446;-84
2022/06/02 16:06:30;;;;;;;;;3.33;3.33;;;;;26.37;36.57;101254.41;4874854;29;45786;-85
2022/06/02 16:12:10;;;;;;;;;2.00;2.00;;;;;26.39;36.99;101240.63;4908786;28;45786;-84
2022/06/02 16:14:45;;;;;;;;;3.00;3.00;;;;;26.38;37.04;101242.50;4966166;28;46146;-84
2022/06/02 16:17:29;;;;;;;;;2.00;1.00;;;;;26.39;37.07;101241.47;4981609;28;45523;-80
2022/06/02 16:20:15;;;;;;;;;3.00;3.00;;;;;26.37;36.79;101239.97;4967997;28;45539;-83
2022/06/02 16:23:13;;;;;;;;;2.33;2.33;;;;;26.39;36.77;101241.47;4964677;28;45976;-80
2022/06/02 16:25:50;;;;;;;;;2.00;2.00;;;;;26.42;36.77;101240.28;4964220;28;45391;-80
2022/06/02 16:28:21;;;;;;;;;3.00;3.00;;;;;26.44;36.75;101239.06;4993304;28;46109;-75
2022/06/02 16:31:14;;;;;;;;;4.33;3.33;;;;;26.49;36.89;101240.41;4963412;28;45454;-76
2022/06/02 16:34:02;;;;;;;;;3.67;3.00;;;;;26.51;36.59;101235.63;4964727;28;46221;-76
2022/06/02 16:36:51;;;;;;;;;1.33;1.33;;;;;26.52;36.83;101231.91;4963909;28;45422;-76
2022/06/02 16:39:32;;;;;;;;;3.00;3.00;;;;;26.51;36.30;101231.06;4961392;28;45333;-76
2022/06/02 16:42:15;;;;;;;;;4.00;2.67;;;;;26.51;36.62;101233.78;4960025;28;45347;-75
2022/06/02 16:44:53;;;;;;;;;4.00;3.00;;;;;26.50;36.66;101232.09;4963473;28;45380;-77
2022/06/02 16:47:56;;;;;;;;;3.00;3.00;;;;;26.48;37.07;101228.66;4962802;28;45974;-76
2022/06/02 16:50:59;;;;;;;;;2.00;1.67;;;;;26.49;36.59;101230.41;4965786;28;45879;-78
2022/06/02 16:53:56;;;;;;;;;4.33;4.00;;;;;26.48;37.11;101231.41;4967523;28;45741;-78
2022/06/02 16:56:33;;;;;;;;;4.00;3.67;;;;;26.48;36.45;101231.41;4966656;28;45528;-80
2022/06/02 16:59:30;;;;;;;;;4.00;3.00;;;;;26.47;37.15;101221.53;4971608;28;45419;-79
2022/06/02 17:02:30;;;;;;;;;2.67;2.67;;;;;26.47;36.77;101217.97;4966002;28;45281;-77
2022/06/02 17:05:24;;;;;;;;;3.33;3.33;;;;;26.43;36.96;101220.19;4968888;28;45504;-76
2022/06/02 17:08:26;;;;;;;;;2.33;2.00;;;;;26.42;37.04;101223.94;4928890;28;46333;-78
2022/06/02 17:11:03;;;;;;;;;3.00;3.00;;;;;26.44;36.81;101228.19;4928928;28;45582;-80
2022/06/02 17:13:34;;;;;;;;;4.33;3.00;;;;;26.46;36.97;101217.13;4930745;28;45458;-77
2022/06/02 17:16:29;;;;;;;;;1.00;1.00;;;;;26.46;37.24;101224.44;4928362;28;45518;-86
2022/06/02 17:19:32;;;;;;;;;3.67;3.67;;;;;26.42;36.76;101218.50;4915920;28;46866;-76
2022/06/02 17:22:13;;;;;;;;;2.33;2.33;;;;;26.39;37.23;101224.28;4927671;28;45639;-76
2022/06/02 17:25:06;;;;;;;;;2.00;1.67;;;;;26.37;36.88;101224.50;4918317;28;45451;-76
2022/06/02 17:28:09;;;;;;;;;4.00;3.00;;;;;26.36;37.00;101220.03;4928619;28;45652;-76
2022/06/02 17:30:46;;;;;;;;;2.00;2.00;;;;;26.37;37.65;101218.19;4925047;28;46240;-76
2022/06/02 17:33:39;;;;;;;;;2.00;2.00;;;;;26.37;37.30;101221.78;4936965;28;45346;-75
2022/06/02 17:36:31;;;;;;;;;3.00;3.00;;;;;26.37;37.04;101221.78;4927872;28;45450;-75
2022/06/02 17:39:15;;;;;;;;;3.67;3.67;;;;;26.40;37.01;101224.13;4930919;28;45425;-82
2022/06/02 17:42:17;;;;;;;;;3.67;3.00;;;;;26.42;37.25;101221.22;4930077;28;46262;-86
2022/06/02 17:45:09;;;;;;;;;5.00;3.00;;;;;26.44;36.99;101228.19;4948977;28;45576;-82
2022/06/02 17:47:53;;;;;;;;;4.00;4.00;;;;;26.48;37.24;101230.56;4964913;28;45795;-80
2022/06/02 17:50:24;;;;;;;;;2.33;2.33;;;;;26.51;37.34;101228.34;4960896;28;46024;-80
2022/06/02 17:53:04;;;;;;;;;3.00;3.00;;;;;26.48;36.81;101228.66;4963868;28;46238;-87
2022/06/02 17:55:58;;;;;;;;;3.00;3.00;;;;;26.46;36.91;101222.56;4967267;28;45438;-86
2022/06/02 17:58:45;;;;;;;;;3.00;3.00;;;;;26.46;36.91;101229.88;4965303;28;49230;-84
2022/06/02 18:01:39;;;;;;;;;2.00;2.00;;;;;26.46;37.57;101225.28;4966122;28;45629;-81
2022/06/02 18:04:32;;;;;;;;;3.00;3.00;;;;;26.49;37.25;101224.09;4961662;28;48062;-82
2022/06/02 18:07:23;;;;;;;;;2.33;2.33;;;;;26.55;37.43;101217.94;4957881;28;45541;-81
2022/06/02 18:10:24;;;;;;;;;4.33;2.33;;;;;26.57;37.67;101219.44;4962083;28;45637;-85
2022/06/02 18:13:10;;;;;;;;;3.33;3.33;;;;;26.56;37.91;101223.19;4961964;28;45623;-83
2022/06/02 18:16:08;;;;;;;;;2.67;2.67;;;;;26.56;37.39;101217.75;4968943;28;48106;-84
2022/06/02 18:19:11;;;;;;;;;3.00;3.00;;;;;26.59;37.96;101213.81;4968182;28;45540;-82
2022/06/02 18:21:55;;;;;;;;;2.00;2.00;;;;;26.61;38.13;101210.94;4963908;28;46641;-92
2022/06/02 18:24:48;;;;;;;;;3.00;3.00;;;;;26.61;37.73;101211.78;4969662;28;45363;-82
2022/06/02 18:27:42;;;;;;;;;4.00;2.00;;;;;26.54;37.91;101210.78;4984606;28;54319;-87
2022/06/02 18:30:21;;;;;;;;;1.67;1.67;;;;;26.46;38.20;101217.13;4968798;28;45464;-88
2022/06/02 18:33:13;;;;;;;;;2.00;2.00;;;;;26.38;38.28;101212.56;4963309;28;45516;-87
2022/06/02 18:36:00;;;;;;;;;3.67;3.00;;;;;26.34;38.64;101211.22;4968914;28;45466;-87
2022/06/02 18:39:00;;;;;;;;;2.00;2.00;;;;;26.28;38.64;101206.50;4964723;28;45538;-87
2022/06/02 18:41:43;;;;;;;;;0.67;0.67;;;;;26.27;39.51;101204.78;4963256;28;45378;-87
2022/06/02 18:44:23;;;;;;;;;2.00;2.00;;;;;26.22;39.04;101198.97;4961628;28;45336;-87
2022/06/02 18:47:21;;;;;;;;;1.00;1.00;;;;;26.17;39.05;101211.25;4990905;28;45924;-87
2022/06/02 18:50:24;;;;;;;;;4.67;3.00;;;;;26.17;39.14;101213.97;4967595;28;45327;-86
2022/06/02 18:53:07;;;;;;;;;5.00;3.00;;;;;26.17;39.50;101210.41;4964509;28;45482;-86
2022/06/02 18:55:54;;;;;;;;;1.33;1.33;;;;;26.17;39.29;101216.69;4966761;28;45685;-85
2022/06/02 18:58:41;;;;;;;;;4.67;4.67;;;;;26.18;38.51;101204.81;4966858;28;45840;-86
2022/06/02 19:01:40;;;;;;;;;8.00;6.33;;;;;26.20;38.24;101203.75;4968249;28;48063;-85
2022/06/02 19:04:08;;;;;;;;;9.00;8.50;;;;;26.20;38.35;101209.22;4966065;28;45464;-85
2022/06/02 19:16:19;;;;;;;;;11.00;9.33;;;;;26.18;37.81;101199.34;4961260;28;45550;-87
2022/06/02 19:18:44;;;;;;;;;9.67;7.00;;;;;26.16;37.79;101197.84;4981557;28;45450;-87
2022/06/02 19:21:16;;;;;;;;;5.67;5.67;;;;;26.16;38.01;101197.84;4988476;28;45590;-86
2022/06/02 19:23:47;;;;;;;;;6.67;6.67;;;;;26.14;38.88;101198.00;4982250;28;52299;-87
2022/06/02 19:26:30;;;;;;;;;6.00;6.00;;;;;26.14;38.53;101197.16;4982962;28;45523;-85
2022/06/02 19:29:22;;;;;;;;;6.33;6.33;;;;;26.14;38.57;101199.88;4983105;28;45526;-92
2022/06/02 19:32:21;;;;;;;;;9.33;7.67;;;;;26.20;37.63;101204.63;4978460;28;46048;-83
2022/06/02 19:35:00;;;;;;;;;8.33;8.33;;;;;26.25;38.27;101198.69;4978629;28;45802;-81
2022/06/02 19:37:39;;;;;;;;;6.33;6.33;;;;;26.29;37.70;101197.31;4975955;28;45444;-87
2022/06/02 19:40:11;;;;;;;;;9.33;8.00;;;;;26.30;37.71;101199.00;4985867;28;45437;-85
2022/06/02 19:42:56;;;;;;;;;7.00;7.00;;;;;26.30;37.73;101201.72;4989070;28;45541;-81
2022/06/02 19:45:54;;;;;;;;;8.67;8.67;;;;;26.30;37.94;101199.84;4980904;28;46183;-82
2022/06/02 19:48:28;;;;;;;;;7.00;7.00;;;;;26.32;37.54;101202.38;4985673;28;45840;-83
2022/06/02 19:51:18;;;;;;;;;6.00;6.00;;;;;26.33;38.02;101211.41;4987643;28;45445;-82
2022/06/02 19:53:51;;;;;;;;;6.67;6.67;;;;;26.32;37.06;101207.81;4981868;28;45430;-81
2022/06/02 19:56:23;;;;;;;;;7.00;7.00;;;;;26.36;37.65;101208.34;4970273;28;47000;-90
2022/06/02 19:59:12;;;;;;;;;8.00;8.00;;;;;26.40;37.62;101210.50;4975010;28;45444;-82